createdAt,value
2022-08-19T00:02:01.531Z,28.4
2022-08-19T00:07:01.289Z,28.6
2022-08-19T00:12:01.556Z,28.9
2022-08-19T00:17:01.486Z,28.7
2022-08-19T00:27:04.920Z,28.4
2022-08-19T00:32:01.545Z,29.1
2022-08-19T00:37:01.556Z,29.9
2022-08-19T00:42:01.485Z,30.1
2022-08-19T00:47:01.312Z,31.1
2022-08-19T00:52:01.258Z,31.4
2022-08-19T00:57:01.129Z,31.3
2022-08-19T01:02:01.404Z,31.2
2022-08-19T01:07:01.656Z,32.3
2022-08-19T01:12:02.546Z,33.0
2022-08-19T01:17:02.033Z,34.2
2022-08-19T01:22:01.542Z,35.1
2022-08-19T01:27:01.458Z,35.4
2022-08-19T01:32:01.529Z,36.2
2022-08-19T01:37:01.547Z,35.3
2022-08-19T01:42:01.547Z,35.6
2022-08-19T01:47:01.166Z,36.0
2022-08-19T01:52:01.528Z,36.3
2022-08-19T01:57:01.603Z,36.2
2022-08-19T02:02:01.547Z,37.8
2022-08-19T02:07:01.564Z,38.6
2022-08-19T02:17:01.541Z,37.9
2022-08-19T02:22:01.554Z,38.5
2022-08-19T02:27:01.523Z,38.0
2022-08-19T02:37:04.513Z,38.1
2022-08-19T02:42:01.828Z,39.6
2022-08-19T02:47:01.548Z,38.2
2022-08-19T02:52:01.542Z,37.2
2022-08-19T02:57:02.091Z,36.6
2022-08-19T03:02:01.559Z,35.6
2022-08-19T03:07:07.181Z,35.2
2022-08-19T03:12:01.604Z,35.9
2022-08-19T03:17:01.539Z,37.1
2022-08-19T03:22:01.545Z,36.9
2022-08-19T03:27:02.224Z,37.4
2022-08-19T03:32:01.558Z,37.2
2022-08-19T03:37:01.567Z,37.7
2022-08-19T03:42:31.802Z,38.1
2022-08-19T03:47:01.535Z,39.8
2022-08-19T03:52:01.552Z,39.5
2022-08-19T03:57:01.511Z,40.0
2022-08-19T04:02:01.509Z,40.6
2022-08-19T04:07:01.545Z,39.2
2022-08-19T04:12:01.513Z,38.1
2022-08-19T04:17:01.519Z,38.0
2022-08-19T04:22:01.515Z,36.6
2022-08-19T04:27:01.597Z,35.1
2022-08-19T04:32:08.347Z,34.8
2022-08-19T04:37:01.519Z,33.7
2022-08-19T04:42:02.186Z,34.6
2022-08-19T04:47:01.512Z,35.7
2022-08-19T04:52:01.509Z,36.0
2022-08-19T04:57:01.510Z,37.1
2022-08-19T05:02:01.508Z,36.0
2022-08-19T05:07:01.865Z,34.5
2022-08-19T05:12:01.530Z,33.6
2022-08-19T05:17:23.948Z,33.0
2022-08-19T05:22:01.513Z,32.0
2022-08-19T05:27:01.533Z,33.4
2022-08-19T05:32:01.520Z,36.4
2022-08-19T05:37:01.564Z,35.6
2022-08-19T05:42:01.504Z,34.6
2022-08-19T05:47:01.634Z,33.1
2022-08-19T05:52:01.512Z,30.5
2022-08-19T05:57:01.530Z,26.0
2022-08-19T06:02:01.414Z,24.0
2022-08-19T06:07:01.516Z,22.8
2022-08-19T06:12:01.533Z,23.0
2022-08-19T06:17:04.927Z,22.8
2022-08-19T06:22:01.532Z,22.9
2022-08-19T06:27:01.952Z,23.6
2022-08-19T06:37:01.522Z,24.1
2022-08-19T06:42:01.511Z,25.8
2022-08-19T06:47:01.549Z,27.3
2022-08-19T06:52:01.840Z,28.7
2022-08-19T06:57:01.613Z,30.8
2022-08-19T07:02:01.513Z,31.4
2022-08-19T07:07:12.485Z,32.3
2022-08-19T07:17:01.514Z,31.8
2022-08-19T07:22:01.532Z,32.0
2022-08-19T07:27:01.517Z,33.4
2022-08-19T07:32:01.517Z,33.5
2022-08-19T07:37:01.518Z,34.4
2022-08-19T07:42:01.514Z,35.2
2022-08-19T07:47:01.488Z,34.7
2022-08-19T07:52:01.508Z,34.2
2022-08-19T07:57:01.580Z,33.2
2022-08-19T08:02:01.506Z,32.1
2022-08-19T08:07:06.456Z,31.0
2022-08-19T08:12:04.884Z,30.9
2022-08-19T08:17:01.427Z,29.4
2022-08-19T08:22:01.475Z,30.0
2022-08-19T08:27:01.488Z,30.6
2022-08-19T08:37:01.533Z,31.1
2022-08-19T08:42:01.562Z,32.6
2022-08-19T08:47:01.509Z,31.6
2022-08-19T08:52:13.844Z,30.3
2022-08-19T08:57:01.387Z,30.6
2022-08-19T09:02:01.497Z,30.8
2022-08-19T09:07:01.321Z,30.2
2022-08-19T09:12:01.295Z,31.5
2022-08-19T09:17:01.260Z,32.8
2022-08-19T09:22:01.344Z,33.8
2022-08-19T09:27:02.795Z,34.0
2022-08-19T09:32:01.297Z,35.3
2022-08-19T09:37:01.548Z,35.0
2022-08-19T09:42:01.455Z,33.5
2022-08-19T09:47:01.483Z,31.7
2022-08-19T09:52:01.535Z,29.7
2022-08-19T09:57:01.540Z,27.1
2022-08-19T10:02:03.776Z,24.9
2022-08-19T10:07:01.549Z,24.8
2022-08-19T10:12:01.580Z,24.2
2022-08-19T10:17:01.564Z,24.1
2022-08-19T10:22:03.483Z,23.8
2022-08-19T10:27:01.537Z,25.3
2022-08-19T10:32:02.271Z,24.3
2022-08-19T10:37:01.762Z,23.8
2022-08-19T10:42:01.544Z,24.3
2022-08-19T10:47:02.896Z,24.7
2022-08-19T10:52:01.527Z,23.9
2022-08-19T10:57:01.535Z,25.2
2022-08-19T11:02:01.573Z,26.7
2022-08-19T11:07:01.557Z,27.8
2022-08-19T11:12:02.685Z,28.2
2022-08-19T11:17:01.541Z,29.2
2022-08-19T11:22:01.531Z,29.9
2022-08-19T11:27:03.876Z,29.6
2022-08-19T11:32:01.632Z,29.9
2022-08-19T11:37:03.103Z,31.2
2022-08-19T11:42:01.542Z,33.9
2022-08-19T11:48:01.399Z,35.3
2022-08-19T11:53:01.747Z,38.9
2022-08-19T11:58:01.698Z,39.5
2022-08-19T12:03:01.141Z,40.6
2022-08-19T12:13:01.199Z,41.4
2022-08-19T12:18:01.740Z,39.9
2022-08-19T12:23:01.794Z,41.0
2022-08-19T12:28:01.732Z,40.0
2022-08-19T12:33:01.568Z,37.7
2022-08-19T12:38:01.722Z,36.1
2022-08-19T12:43:01.548Z,35.6
2022-08-19T12:48:01.561Z,35.4
2022-08-19T12:53:01.569Z,34.8
2022-08-19T12:58:01.538Z,35.4
2022-08-19T13:03:01.532Z,35.6
2022-08-19T13:08:01.542Z,36.6
2022-08-19T13:13:01.421Z,36.4
2022-08-19T13:18:01.321Z,37.5
2022-08-19T13:23:01.257Z,37.7
2022-08-19T13:28:01.428Z,38.6
2022-08-19T13:33:01.418Z,38.2
2022-08-19T13:38:01.130Z,37.6
2022-08-19T13:43:01.447Z,37.8
2022-08-19T13:49:01.557Z,37.2
2022-08-19T13:54:01.527Z,37.4
2022-08-19T13:59:01.535Z,37.7
2022-08-19T14:04:01.540Z,39.2
2022-08-19T14:09:01.554Z,39.4
2022-08-19T14:14:01.661Z,40.6
2022-08-19T14:19:01.566Z,41.3
2022-08-19T14:24:01.573Z,42.3
2022-08-19T14:29:02.165Z,42.7
2022-08-19T14:34:01.545Z,44.0
2022-08-19T14:39:01.664Z,44.7
2022-08-19T14:44:01.634Z,44.2
2022-08-19T14:49:01.645Z,44.6
2022-08-19T14:54:01.476Z,45.2
2022-08-19T14:59:01.573Z,44.4
2022-08-19T15:04:01.554Z,44.8
2022-08-19T15:09:04.138Z,44.1
2022-08-19T15:14:01.547Z,43.4
2022-08-19T15:19:01.543Z,41.8
2022-08-19T15:24:01.571Z,42.7
2022-08-19T15:34:01.548Z,43.9
2022-08-19T15:39:01.531Z,44.3
2022-08-19T15:44:01.551Z,42.8
2022-08-19T15:49:01.627Z,41.5
2022-08-19T15:54:03.745Z,39.5
2022-08-19T15:59:01.527Z,37.2
2022-08-19T16:04:02.030Z,36.6
2022-08-19T16:09:01.527Z,38.3
2022-08-19T16:14:01.528Z,38.7
2022-08-19T16:19:01.519Z,39.5
2022-08-19T16:24:01.611Z,41.7
2022-08-19T16:29:01.540Z,41.8
2022-08-19T16:34:01.527Z,40.2
2022-08-19T16:39:01.507Z,39.4
2022-08-19T16:44:01.509Z,39.6
2022-08-19T16:49:01.512Z,38.2
2022-08-19T16:54:01.526Z,37.3
2022-08-19T16:59:01.512Z,38.0
2022-08-19T17:04:01.513Z,36.6
2022-08-19T17:09:06.527Z,35.5
2022-08-19T17:14:01.395Z,35.3
2022-08-19T17:19:01.339Z,36.2
2022-08-19T17:24:01.575Z,36.4
2022-08-19T17:29:01.264Z,39.0
2022-08-19T17:34:01.250Z,39.7
2022-08-19T17:39:01.308Z,39.2
2022-08-19T17:44:01.317Z,37.6
2022-08-19T17:49:01.480Z,37.2
2022-08-19T17:54:01.456Z,36.4
2022-08-19T18:04:01.504Z,38.1
2022-08-19T18:09:01.557Z,38.2
2022-08-19T18:14:01.540Z,39.0
2022-08-19T18:19:01.545Z,38.4
2022-08-19T18:24:01.957Z,38.7
2022-08-19T18:29:01.567Z,36.2
2022-08-19T18:34:02.011Z,37.2
2022-08-19T18:39:05.107Z,36.2
2022-08-19T18:44:01.549Z,36.7
2022-08-19T18:50:01.546Z,37.7
2022-08-19T18:55:01.528Z,39.7
2022-08-19T19:00:03.321Z,38.6
2022-08-19T19:05:05.155Z,40.0
2022-08-19T19:10:01.548Z,40.4
2022-08-19T19:15:02.114Z,39.7
2022-08-19T19:20:01.561Z,38.8
2022-08-19T19:25:02.864Z,40.3
2022-08-19T19:30:07.350Z,38.8
2022-08-19T19:36:01.923Z,37.7
2022-08-19T19:41:01.462Z,36.5
2022-08-19T19:46:01.449Z,34.8
2022-08-19T19:51:01.499Z,32.7
2022-08-19T19:56:01.457Z,31.6
2022-08-19T20:01:01.536Z,29.5
2022-08-19T20:06:01.899Z,28.1
2022-08-19T20:16:01.518Z,26.4
2022-08-19T20:21:01.938Z,25.5
2022-08-19T20:26:01.508Z,26.7
2022-08-19T20:31:01.512Z,26.9
2022-08-19T20:36:01.512Z,26.6
2022-08-19T20:41:01.532Z,28.6
2022-08-19T20:46:01.516Z,28.4
2022-08-19T20:51:06.622Z,27.4
2022-08-19T20:56:01.625Z,26.6
2022-08-19T21:01:01.601Z,28.2
2022-08-19T21:06:01.437Z,28.0
2022-08-19T21:12:01.506Z,28.9
2022-08-19T21:17:01.930Z,28.1
2022-08-19T21:22:01.508Z,27.0
2022-08-19T21:27:06.530Z,24.8
2022-08-19T21:32:01.512Z,24.9
2022-08-19T21:37:01.782Z,23.2
2022-08-19T21:42:01.517Z,23.8
2022-08-19T21:47:01.518Z,25.4
2022-08-19T21:52:01.537Z,25.0
2022-08-19T21:57:01.577Z,24.0
2022-08-19T22:02:15.551Z,24.9
2022-08-19T22:07:01.514Z,25.6
2022-08-19T22:12:01.505Z,27.0
2022-08-19T22:17:02.378Z,29.4
2022-08-19T22:22:01.635Z,29.1
2022-08-19T22:27:01.512Z,30.0
2022-08-19T22:32:27.270Z,27.8
2022-08-19T22:37:01.537Z,25.1
2022-08-19T22:42:01.519Z,24.9
2022-08-19T22:52:01.519Z,23.4
2022-08-19T22:57:01.510Z,24.6
2022-08-19T23:02:01.514Z,25.6
2022-08-19T23:07:06.528Z,26.6
2022-08-19T23:12:01.516Z,26.9
2022-08-19T23:17:01.420Z,30.2
2022-08-19T23:22:01.516Z,29.8
2022-08-19T23:27:01.521Z,29.7
2022-08-19T23:32:02.191Z,26.3
2022-08-19T23:37:01.520Z,25.8
2022-08-19T23:42:01.509Z,22.4
2022-08-19T23:47:02.533Z,24.6
2022-08-19T23:52:01.512Z,25.8
2022-08-19T23:57:02.154Z,27.8
